createdAt,value
2022-12-31T00:00:57.705Z,187.75
2022-12-31T00:01:57.760Z,188.61
2022-12-31T00:02:57.817Z,187.00
2022-12-31T00:03:57.651Z,186.47
2022-12-31T00:04:57.646Z,186.15
2022-12-31T00:05:57.644Z,185.73
2022-12-31T00:06:57.614Z,185.41
2022-12-31T00:07:57.608Z,185.62
2022-12-31T00:08:57.595Z,185.62
2022-12-31T00:09:57.588Z,184.89
2022-12-31T00:10:57.590Z,186.04
2022-12-31T00:11:57.560Z,186.24
2022-12-31T00:12:57.550Z,186.24
2022-12-31T00:13:57.539Z,185.42
2022-12-31T00:14:57.540Z,186.24
2022-12-31T00:15:57.526Z,184.39
2022-12-31T00:16:57.551Z,185.01
2022-12-31T00:17:57.501Z,184.19
2022-12-31T00:18:57.479Z,184.39
2022-12-31T00:19:57.486Z,183.99
2022-12-31T00:20:57.490Z,184.19
2022-12-31T00:21:57.462Z,184.60
2022-12-31T00:22:57.456Z,182.58
2022-12-31T00:23:57.440Z,183.38
2022-12-31T00:24:57.430Z,183.38
2022-12-31T00:25:57.422Z,182.18
2022-12-31T00:26:57.409Z,183.18
2022-12-31T00:27:57.391Z,181.78
2022-12-31T00:28:57.387Z,182.38
2022-12-31T00:30:04.134Z,183.18
2022-12-31T00:30:58.386Z,182.78
2022-12-31T00:31:57.338Z,182.38
2022-12-31T00:32:57.328Z,181.19
2022-12-31T00:33:57.323Z,181.98
2022-12-31T00:34:57.300Z,181.98
2022-12-31T00:35:57.308Z,181.78
2022-12-31T00:36:57.283Z,181.38
2022-12-31T00:37:57.276Z,180.99
2022-12-31T00:38:57.265Z,180.80
2022-12-31T00:39:57.269Z,181.19
2022-12-31T00:40:57.275Z,180.02
2022-12-31T00:41:57.238Z,179.05
2022-12-31T00:42:57.221Z,178.29
2022-12-31T00:43:57.220Z,179.05
2022-12-31T00:44:57.211Z,177.53
2022-12-31T00:45:58.088Z,177.53
2022-12-31T00:46:57.202Z,178.09
2022-12-31T00:47:57.169Z,178.09
2022-12-31T00:48:57.155Z,178.09
2022-12-31T00:49:57.148Z,177.15
2022-12-31T00:50:57.146Z,176.96
2022-12-31T00:51:57.113Z,175.66
2022-12-31T00:52:57.124Z,176.77
2022-12-31T00:53:57.107Z,175.84
2022-12-31T00:54:57.082Z,175.84
2022-12-31T00:55:57.089Z,174.74
2022-12-31T00:56:57.079Z,175.84
2022-12-31T00:57:57.049Z,175.10
2022-12-31T00:58:57.039Z,175.10
2022-12-31T00:59:57.028Z,174.01
2022-12-31T01:00:57.125Z,176.03
2022-12-31T01:01:57.143Z,174.92
2022-12-31T01:02:57.067Z,175.10
2022-12-31T01:03:57.017Z,175.47
2022-12-31T01:04:56.990Z,174.92
2022-12-31T01:05:56.980Z,175.10
2022-12-31T01:06:56.963Z,175.10
2022-12-31T01:07:56.946Z,175.66
2022-12-31T01:08:56.936Z,176.21
2022-12-31T01:09:56.927Z,176.03
2022-12-31T01:10:56.919Z,175.47
2022-12-31T01:11:56.898Z,176.03
2022-12-31T01:12:56.889Z,176.21
2022-12-31T01:13:56.891Z,175.84
2022-12-31T01:14:56.885Z,176.03
2022-12-31T01:15:56.891Z,177.34
2022-12-31T01:16:56.876Z,174.92
2022-12-31T01:17:56.831Z,175.84
2022-12-31T01:18:56.845Z,174.92
2022-12-31T01:19:56.817Z,175.10
2022-12-31T01:20:56.816Z,174.55
2022-12-31T01:21:56.796Z,175.10
2022-12-31T01:22:56.772Z,176.03
2022-12-31T01:23:56.786Z,174.55
2022-12-31T01:24:56.756Z,173.83
2022-12-31T01:25:56.776Z,173.29
2022-12-31T01:26:56.743Z,173.29
2022-12-31T01:27:56.731Z,172.75
2022-12-31T01:28:56.753Z,172.75
2022-12-31T01:29:56.710Z,172.04
2022-12-31T01:30:56.771Z,172.21
2022-12-31T01:31:56.698Z,172.04
2022-12-31T01:32:56.676Z,172.57
2022-12-31T01:33:56.667Z,172.93
2022-12-31T01:34:56.668Z,171.15
2022-12-31T01:35:56.658Z,172.21
2022-12-31T01:36:56.655Z,171.68
2022-12-31T01:37:56.636Z,170.80
2022-12-31T01:38:56.606Z,170.28
2022-12-31T01:39:56.616Z,169.59
2022-12-31T01:40:56.606Z,169.76
2022-12-31T01:41:56.577Z,169.42
2022-12-31T01:42:56.559Z,169.76
2022-12-31T01:43:56.555Z,169.24
2022-12-31T01:44:56.549Z,168.22
2022-12-31T01:45:56.620Z,167.71
2022-12-31T01:46:56.547Z,167.88
2022-12-31T01:47:56.522Z,168.73
2022-12-31T01:48:56.519Z,168.73
2022-12-31T01:49:56.495Z,166.71
2022-12-31T01:50:56.492Z,167.21
2022-12-31T01:51:56.483Z,167.21
2022-12-31T01:52:56.465Z,168.56
2022-12-31T01:53:56.445Z,166.71
2022-12-31T01:54:56.427Z,168.22
2022-12-31T01:55:56.428Z,167.38
2022-12-31T01:56:56.451Z,166.04
2022-12-31T01:57:56.393Z,165.71
2022-12-31T01:58:56.389Z,166.71
2022-12-31T01:59:56.388Z,166.04
2022-12-31T02:00:56.459Z,164.73
2022-12-31T02:01:56.454Z,164.09
2022-12-31T02:02:56.392Z,164.25
2022-12-31T02:03:56.337Z,162.17
2022-12-31T02:04:56.318Z,163.12
2022-12-31T02:05:56.352Z,164.09
2022-12-31T02:06:56.321Z,162.80
2022-12-31T02:07:56.310Z,161.86
2022-12-31T02:08:56.286Z,161.39
2022-12-31T02:09:56.269Z,161.08
2022-12-31T02:10:56.265Z,160.46
2022-12-31T02:11:56.275Z,160.30
2022-12-31T02:12:56.236Z,159.84
2022-12-31T02:13:58.619Z,160.76
2022-12-31T02:14:56.219Z,159.69
2022-12-31T02:15:56.231Z,159.54
2022-12-31T02:16:56.229Z,159.69
2022-12-31T02:17:56.190Z,159.69
2022-12-31T02:18:56.177Z,159.84
2022-12-31T02:19:56.157Z,159.23
2022-12-31T02:20:56.146Z,160.15
2022-12-31T02:21:56.144Z,159.84
2022-12-31T02:22:56.137Z,159.69
2022-12-31T02:23:56.117Z,160.46
2022-12-31T02:24:56.107Z,160.30
2022-12-31T02:25:56.108Z,158.78
2022-12-31T02:26:56.098Z,158.48
2022-12-31T02:27:56.066Z,159.84
2022-12-31T02:28:56.088Z,158.48
2022-12-31T02:29:56.052Z,159.08
2022-12-31T02:30:56.097Z,158.78
2022-12-31T02:31:56.041Z,160.30
2022-12-31T02:32:56.023Z,159.08
2022-12-31T02:33:56.006Z,160.30
2022-12-31T02:34:55.999Z,158.48
2022-12-31T02:35:55.982Z,157.58
2022-12-31T02:36:55.995Z,158.78
2022-12-31T02:37:55.990Z,157.88
2022-12-31T02:38:55.948Z,158.93
2022-12-31T02:39:55.958Z,158.18
2022-12-31T02:40:55.937Z,159.08
2022-12-31T02:41:55.918Z,157.88
2022-12-31T02:42:55.997Z,159.08
2022-12-31T02:43:55.909Z,158.93
2022-12-31T02:44:55.919Z,159.69
2022-12-31T02:45:55.904Z,159.69
2022-12-31T02:46:55.889Z,159.99
2022-12-31T02:47:55.933Z,159.38
2022-12-31T02:48:55.839Z,158.78
2022-12-31T02:49:55.913Z,159.54
2022-12-31T02:50:55.865Z,159.23
2022-12-31T02:51:55.813Z,159.54
2022-12-31T02:52:55.814Z,159.54
2022-12-31T02:53:55.784Z,159.23
2022-12-31T02:54:55.780Z,159.99
2022-12-31T02:55:55.760Z,159.54
2022-12-31T02:56:55.762Z,159.54
2022-12-31T02:57:55.787Z,159.08
2022-12-31T02:58:55.738Z,159.38
2022-12-31T02:59:55.722Z,159.08
2022-12-31T03:00:55.905Z,159.38
2022-12-31T03:01:55.810Z,159.99
2022-12-31T03:02:55.779Z,160.76
2022-12-31T03:03:55.674Z,159.38
2022-12-31T03:04:55.660Z,159.69
2022-12-31T03:05:55.664Z,160.46
2022-12-31T03:06:55.666Z,159.69
2022-12-31T03:07:55.641Z,160.30
2022-12-31T03:08:55.630Z,159.23
2022-12-31T03:09:55.610Z,159.23
2022-12-31T03:10:55.596Z,159.38
2022-12-31T03:11:55.590Z,159.69
2022-12-31T03:12:55.594Z,158.48
2022-12-31T03:13:55.570Z,159.23
2022-12-31T03:14:55.553Z,159.08
2022-12-31T03:15:55.635Z,160.15
2022-12-31T03:16:55.534Z,159.84
2022-12-31T03:17:55.548Z,159.99
2022-12-31T03:18:55.532Z,159.84
2022-12-31T03:19:55.519Z,159.99
2022-12-31T03:20:55.508Z,159.84
2022-12-31T03:21:55.492Z,159.23
2022-12-31T03:22:55.496Z,159.54
2022-12-31T03:23:55.476Z,159.99
2022-12-31T03:24:55.446Z,158.93
2022-12-31T03:25:55.446Z,158.32
2022-12-31T03:26:55.425Z,159.69
2022-12-31T03:27:55.426Z,159.54
2022-12-31T03:28:55.418Z,159.38
2022-12-31T03:29:55.396Z,159.08
2022-12-31T03:30:55.386Z,159.23
2022-12-31T03:31:55.392Z,159.54
2022-12-31T03:32:55.359Z,159.08
2022-12-31T03:33:55.365Z,158.48
2022-12-31T03:34:55.335Z,158.18
2022-12-31T03:35:55.328Z,157.58
2022-12-31T03:36:55.344Z,156.84
2022-12-31T03:37:55.315Z,156.54
2022-12-31T03:38:55.322Z,155.96
2022-12-31T03:39:55.299Z,155.52
2022-12-31T03:40:55.274Z,154.80
2022-12-31T03:41:55.283Z,155.23
2022-12-31T03:42:55.264Z,154.80
2022-12-31T03:43:55.274Z,154.66
2022-12-31T03:44:55.229Z,154.80
2022-12-31T03:45:55.269Z,155.38
2022-12-31T03:46:55.202Z,154.66
2022-12-31T03:47:55.206Z,154.23
2022-12-31T03:48:55.213Z,153.80
2022-12-31T03:49:55.180Z,153.52
2022-12-31T03:50:55.166Z,153.66
2022-12-31T03:51:55.157Z,153.80
2022-12-31T03:52:55.147Z,154.09
2022-12-31T03:53:55.130Z,154.09
2022-12-31T03:54:55.144Z,154.51
2022-12-31T03:55:55.116Z,154.66
2022-12-31T03:56:59.902Z,154.94
2022-12-31T03:57:56.105Z,155.38
2022-12-31T03:58:55.075Z,154.94
2022-12-31T03:59:55.080Z,154.80
2022-12-31T04:00:55.116Z,155.52
2022-12-31T04:01:55.199Z,155.96
2022-12-31T04:02:55.076Z,156.25
2022-12-31T04:03:55.035Z,156.84
2022-12-31T04:04:55.040Z,157.43
2022-12-31T04:05:55.033Z,157.58
2022-12-31T04:06:54.994Z,158.02
2022-12-31T04:07:55.015Z,158.32
2022-12-31T04:08:54.968Z,159.38
2022-12-31T04:09:54.977Z,159.54
2022-12-31T04:10:54.954Z,160.46
2022-12-31T04:11:54.936Z,160.61
2022-12-31T04:12:54.935Z,160.30
2022-12-31T04:13:54.928Z,161.23
2022-12-31T04:14:54.902Z,161.70
2022-12-31T04:15:54.886Z,161.70
2022-12-31T04:16:54.878Z,162.33
2022-12-31T04:17:54.881Z,162.33
2022-12-31T04:18:54.879Z,162.01
2022-12-31T04:19:54.878Z,161.54
2022-12-31T04:20:54.841Z,162.49
2022-12-31T04:21:54.829Z,162.80
2022-12-31T04:22:54.826Z,162.96
2022-12-31T04:23:54.818Z,163.44
2022-12-31T04:24:54.813Z,163.44
2022-12-31T04:25:54.786Z,163.92
2022-12-31T04:26:54.780Z,164.09
2022-12-31T04:27:54.777Z,164.09
2022-12-31T04:28:54.791Z,163.92
2022-12-31T04:29:54.741Z,164.09
2022-12-31T04:30:54.727Z,164.25
2022-12-31T04:31:54.741Z,164.25
2022-12-31T04:32:54.705Z,165.06
2022-12-31T04:33:54.714Z,164.73
2022-12-31T04:34:54.735Z,164.73
2022-12-31T04:35:54.666Z,165.22
2022-12-31T04:36:54.708Z,165.39
2022-12-31T04:37:54.655Z,165.06
2022-12-31T04:38:54.650Z,165.06
2022-12-31T04:39:56.944Z,165.06
2022-12-31T04:40:55.634Z,165.22
2022-12-31T04:41:54.613Z,164.90
2022-12-31T04:42:54.598Z,164.57
2022-12-31T04:43:54.586Z,165.22
2022-12-31T04:44:54.588Z,165.22
2022-12-31T04:45:54.649Z,166.21
2022-12-31T04:46:54.558Z,165.06
2022-12-31T04:47:54.540Z,165.88
2022-12-31T04:48:54.525Z,165.06
2022-12-31T04:49:54.569Z,166.21
2022-12-31T04:50:54.505Z,165.55
2022-12-31T04:51:54.520Z,166.04
2022-12-31T04:52:54.494Z,167.04
2022-12-31T04:53:54.499Z,165.71
2022-12-31T04:54:54.490Z,167.54
2022-12-31T04:55:54.457Z,165.39
2022-12-31T04:56:54.467Z,165.22
2022-12-31T04:57:54.451Z,165.39
2022-12-31T04:58:54.435Z,165.88
2022-12-31T04:59:54.434Z,165.55
2022-12-31T05:00:54.490Z,165.71
2022-12-31T05:01:54.497Z,165.88
2022-12-31T05:02:54.414Z,167.04
2022-12-31T05:03:54.367Z,167.54
2022-12-31T05:04:54.382Z,166.88
2022-12-31T05:05:54.347Z,166.04
2022-12-31T05:06:54.341Z,167.54
2022-12-31T05:07:54.320Z,166.04
2022-12-31T05:08:54.325Z,165.71
2022-12-31T05:09:54.314Z,166.54
2022-12-31T05:10:54.293Z,166.88
2022-12-31T05:11:54.296Z,167.38
2022-12-31T05:12:54.270Z,169.24
2022-12-31T05:13:54.260Z,168.73
2022-12-31T05:14:54.264Z,168.22
2022-12-31T05:15:54.241Z,169.76
2022-12-31T05:16:54.256Z,167.88
2022-12-31T05:17:54.230Z,168.73
2022-12-31T05:18:54.207Z,169.59
2022-12-31T05:19:54.210Z,169.93
2022-12-31T05:20:54.183Z,170.28
2022-12-31T05:21:54.174Z,168.73
2022-12-31T05:22:54.162Z,169.93
2022-12-31T05:23:54.150Z,170.28
2022-12-31T05:24:54.156Z,170.45
2022-12-31T05:25:54.130Z,170.80
2022-12-31T05:26:54.118Z,170.11
2022-12-31T05:27:54.105Z,171.51
2022-12-31T05:28:54.105Z,169.93
2022-12-31T05:29:54.103Z,170.80
2022-12-31T05:30:54.122Z,172.75
2022-12-31T05:31:54.078Z,171.33
2022-12-31T05:32:54.056Z,172.57
2022-12-31T05:33:54.049Z,173.65
2022-12-31T05:34:54.058Z,174.92
2022-12-31T05:35:54.025Z,175.47
2022-12-31T05:36:54.007Z,176.77
2022-12-31T05:37:53.995Z,174.92
2022-12-31T05:38:53.978Z,176.59
2022-12-31T05:39:53.997Z,176.40
2022-12-31T05:40:53.966Z,176.77
2022-12-31T05:41:53.960Z,177.71
2022-12-31T05:42:53.940Z,177.53
2022-12-31T05:43:53.924Z,176.77
2022-12-31T05:44:53.936Z,178.09
2022-12-31T05:45:53.920Z,178.86
2022-12-31T05:46:53.898Z,178.86
2022-12-31T05:47:53.885Z,179.63
2022-12-31T05:48:53.881Z,178.67
2022-12-31T05:49:53.881Z,178.48
2022-12-31T05:50:53.867Z,180.02
2022-12-31T05:51:53.838Z,177.90
2022-12-31T05:52:53.832Z,179.24
2022-12-31T05:53:53.834Z,178.09
2022-12-31T05:54:53.832Z,179.24
2022-12-31T05:55:53.796Z,179.82
2022-12-31T05:56:53.791Z,180.60
2022-12-31T05:57:53.779Z,179.24
2022-12-31T05:58:53.776Z,181.19
2022-12-31T05:59:53.783Z,181.98
2022-12-31T06:00:53.743Z,182.78
2022-12-31T06:01:53.732Z,182.58
2022-12-31T06:02:53.791Z,182.18
2022-12-31T06:03:53.762Z,183.78
2022-12-31T06:04:53.707Z,182.78
2022-12-31T06:05:53.737Z,183.58
2022-12-31T06:06:53.678Z,184.19
2022-12-31T06:07:53.666Z,182.38
2022-12-31T06:08:53.661Z,183.78
2022-12-31T06:09:53.684Z,183.38
2022-12-31T06:10:53.650Z,183.99
2022-12-31T06:11:53.625Z,185.21
2022-12-31T06:12:53.639Z,184.60
2022-12-31T06:13:53.606Z,183.99
2022-12-31T06:14:53.596Z,184.39
2022-12-31T06:15:53.604Z,183.18
2022-12-31T06:16:53.575Z,184.60
2022-12-31T06:17:53.567Z,183.18
2022-12-31T06:18:53.546Z,185.01
2022-12-31T06:19:53.539Z,185.01
2022-12-31T06:20:53.535Z,184.80
2022-12-31T06:21:53.529Z,186.24
2022-12-31T06:22:53.509Z,185.62
2022-12-31T06:23:53.501Z,185.83
2022-12-31T06:24:53.485Z,185.62
2022-12-31T06:25:53.477Z,186.87
2022-12-31T06:26:53.482Z,185.20
2022-12-31T06:27:53.451Z,185.41
2022-12-31T06:28:53.437Z,185.10
2022-12-31T06:29:53.429Z,185.83
2022-12-31T06:31:00.013Z,185.31
2022-12-31T06:31:53.427Z,185.62
2022-12-31T06:32:53.396Z,186.45
2022-12-31T06:33:53.394Z,186.68
2022-12-31T06:34:53.375Z,185.41
2022-12-31T06:35:53.366Z,185.83
2022-12-31T06:36:53.416Z,185.20
2022-12-31T06:37:53.355Z,185.83
2022-12-31T06:38:53.355Z,185.31
2022-12-31T06:39:53.331Z,185.41
2022-12-31T06:40:53.322Z,185.94
2022-12-31T06:41:53.341Z,185.41
2022-12-31T06:42:59.533Z,186.47
2022-12-31T06:43:54.270Z,185.94
2022-12-31T06:44:53.259Z,185.83
2022-12-31T06:45:53.262Z,186.04
2022-12-31T06:46:53.440Z,184.79
2022-12-31T06:47:53.235Z,186.45
2022-12-31T06:48:53.220Z,186.47
2022-12-31T06:49:53.267Z,185.62
2022-12-31T06:50:53.214Z,186.68
2022-12-31T06:51:53.185Z,186.78
2022-12-31T06:52:53.195Z,187.43
2022-12-31T06:53:53.187Z,187.10
2022-12-31T06:54:53.163Z,187.32
2022-12-31T06:55:53.153Z,187.96
2022-12-31T06:56:53.131Z,188.50
2022-12-31T06:57:53.146Z,189.37
2022-12-31T06:58:53.115Z,189.92
2022-12-31T06:59:53.106Z,191.58
2022-12-31T07:00:53.090Z,190.47
2022-12-31T07:01:53.206Z,190.58
2022-12-31T07:02:53.106Z,190.69
2022-12-31T07:03:53.070Z,191.25
2022-12-31T07:04:53.049Z,190.80
2022-12-31T07:05:53.056Z,192.60
2022-12-31T07:06:53.038Z,191.81
2022-12-31T07:07:53.047Z,191.25
2022-12-31T07:08:53.002Z,192.26
2022-12-31T07:09:53.039Z,190.36
2022-12-31T07:10:52.990Z,192.48
2022-12-31T07:11:52.991Z,191.58
2022-12-31T07:12:52.975Z,191.47
2022-12-31T07:13:52.947Z,190.80
2022-12-31T07:14:52.973Z,192.14
2022-12-31T07:15:52.968Z,192.37
2022-12-31T07:16:52.942Z,193.05
2022-12-31T07:17:52.937Z,192.14
2022-12-31T07:18:52.897Z,192.03
2022-12-31T07:19:57.506Z,191.25
2022-12-31T07:20:53.875Z,191.92
2022-12-31T07:21:52.907Z,191.92
2022-12-31T07:22:52.851Z,193.28
2022-12-31T07:23:52.852Z,192.48
2022-12-31T07:24:52.828Z,193.50
2022-12-31T07:25:52.819Z,193.39
2022-12-31T07:26:56.737Z,193.50
2022-12-31T07:27:52.811Z,192.71
2022-12-31T07:28:52.786Z,194.19
2022-12-31T07:29:52.793Z,193.96
2022-12-31T07:30:52.913Z,192.37
2022-12-31T07:31:52.756Z,193.28
2022-12-31T07:32:52.761Z,192.14
2022-12-31T07:33:52.725Z,192.14
2022-12-31T07:34:52.731Z,191.14
2022-12-31T07:35:52.709Z,192.82
2022-12-31T07:36:52.714Z,193.73
2022-12-31T07:37:52.749Z,194.54
2022-12-31T07:38:52.683Z,195.46
2022-12-31T07:39:52.670Z,195.23
2022-12-31T07:40:52.651Z,197.82
2022-12-31T07:41:52.645Z,197.11
2022-12-31T07:42:52.659Z,198.06
2022-12-31T07:43:55.320Z,198.06
2022-12-31T07:44:54.447Z,200.48
2022-12-31T07:45:55.605Z,198.30
2022-12-31T07:46:52.620Z,199.02
2022-12-31T07:47:55.300Z,199.63
2022-12-31T07:48:53.567Z,200.60
2022-12-31T07:49:52.554Z,201.46
2022-12-31T07:51:15.580Z,200.85
2022-12-31T07:51:52.557Z,200.24
2022-12-31T07:52:52.560Z,200.97
2022-12-31T07:53:52.539Z,199.99
2022-12-31T07:54:52.517Z,200.36
2022-12-31T07:55:52.500Z,201.09
2022-12-31T07:56:52.496Z,200.48
2022-12-31T07:57:52.482Z,200.48
2022-12-31T07:58:52.487Z,201.46
2022-12-31T07:59:52.455Z,201.34
2022-12-31T08:00:52.461Z,202.71
2022-12-31T08:01:52.684Z,202.83
2022-12-31T08:02:52.449Z,203.09
2022-12-31T08:03:52.461Z,204.48
2022-12-31T08:04:52.399Z,203.59
2022-12-31T08:05:52.384Z,204.22
2022-12-31T08:06:52.386Z,203.72
2022-12-31T08:07:52.366Z,204.35
2022-12-31T08:08:52.369Z,204.48
2022-12-31T08:09:52.341Z,204.86
2022-12-31T08:10:52.331Z,205.37
2022-12-31T08:11:52.315Z,205.76
2022-12-31T08:12:52.300Z,205.63
2022-12-31T08:13:52.322Z,205.89
2022-12-31T08:14:52.296Z,206.02
2022-12-31T08:15:52.363Z,207.19
2022-12-31T08:16:52.278Z,207.85
2022-12-31T08:17:52.249Z,207.19
2022-12-31T08:18:52.242Z,207.71
2022-12-31T08:19:52.234Z,207.98
2022-12-31T08:20:52.217Z,209.30
2022-12-31T08:21:52.223Z,207.58
2022-12-31T08:22:52.206Z,207.45
2022-12-31T08:23:52.198Z,207.32
2022-12-31T08:24:52.170Z,207.98
2022-12-31T08:25:52.254Z,209.44
2022-12-31T08:26:53.357Z,207.45
2022-12-31T08:27:52.142Z,207.32
2022-12-31T08:28:52.156Z,208.37
2022-12-31T08:29:52.133Z,207.71
2022-12-31T08:30:52.106Z,206.41
2022-12-31T08:31:52.201Z,208.24
2022-12-31T08:32:52.086Z,208.51
2022-12-31T08:33:52.124Z,208.11
2022-12-31T08:34:52.063Z,206.93
2022-12-31T08:35:52.056Z,207.06
2022-12-31T08:36:52.049Z,206.28
2022-12-31T08:37:52.031Z,207.19
2022-12-31T08:38:52.023Z,207.58
2022-12-31T08:39:52.045Z,208.51
2022-12-31T08:40:52.012Z,206.80
2022-12-31T08:41:52.001Z,207.85
2022-12-31T08:42:51.979Z,208.64
2022-12-31T08:43:51.986Z,207.45
2022-12-31T08:44:52.006Z,205.89
2022-12-31T08:45:52.025Z,207.71
2022-12-31T08:46:51.937Z,207.45
2022-12-31T08:47:56.467Z,207.85
2022-12-31T08:48:52.906Z,208.24
2022-12-31T08:49:51.926Z,207.71
2022-12-31T08:50:51.899Z,208.51
2022-12-31T08:51:51.882Z,208.77
2022-12-31T08:52:51.861Z,208.77
2022-12-31T08:53:51.861Z,209.71
2022-12-31T08:54:51.845Z,211.19
2022-12-31T08:55:51.850Z,210.11
2022-12-31T08:56:51.825Z,210.65
2022-12-31T08:57:51.821Z,209.04
2022-12-31T08:58:51.806Z,210.65
2022-12-31T08:59:51.818Z,209.17
2022-12-31T09:00:51.854Z,211.19
2022-12-31T09:01:51.934Z,210.92
2022-12-31T09:02:51.758Z,211.60
2022-12-31T09:03:51.799Z,211.33
2022-12-31T09:04:51.728Z,211.05
2022-12-31T09:05:51.743Z,212.56
2022-12-31T09:06:51.715Z,212.70
2022-12-31T09:07:51.703Z,213.53
2022-12-31T09:08:51.688Z,212.15
2022-12-31T09:09:51.702Z,212.83
2022-12-31T09:10:51.681Z,213.11
2022-12-31T09:11:51.659Z,211.46
2022-12-31T09:12:51.665Z,210.51
2022-12-31T09:13:51.665Z,211.33
2022-12-31T09:14:51.617Z,210.24
2022-12-31T09:15:51.611Z,210.65
2022-12-31T09:16:51.672Z,209.30
2022-12-31T09:17:51.587Z,209.44
2022-12-31T09:18:51.616Z,209.57
2022-12-31T09:19:51.581Z,211.19
2022-12-31T09:20:51.576Z,210.65
2022-12-31T09:21:51.557Z,212.01
2022-12-31T09:22:51.551Z,210.38
2022-12-31T09:23:52.902Z,210.24
2022-12-31T09:24:51.550Z,210.78
2022-12-31T09:25:51.519Z,210.38
2022-12-31T09:26:51.500Z,209.84
2022-12-31T09:27:51.502Z,211.05
2022-12-31T09:28:51.487Z,209.71
2022-12-31T09:29:51.484Z,209.84
2022-12-31T09:30:51.446Z,209.84
2022-12-31T09:31:51.561Z,208.51
2022-12-31T09:32:55.451Z,209.57
2022-12-31T09:33:52.414Z,208.90
2022-12-31T09:34:51.440Z,208.24
2022-12-31T09:35:51.446Z,209.17
2022-12-31T09:36:51.380Z,208.37
2022-12-31T09:37:51.375Z,208.51
2022-12-31T09:38:51.364Z,209.57
2022-12-31T09:39:51.367Z,208.51
2022-12-31T09:40:51.361Z,208.11
2022-12-31T09:41:51.340Z,206.28
2022-12-31T09:42:51.335Z,205.50
2022-12-31T09:43:54.554Z,205.89
2022-12-31T09:44:52.294Z,205.37
2022-12-31T09:45:51.338Z,206.41
2022-12-31T09:46:51.293Z,205.76
2022-12-31T09:47:51.318Z,206.54
2022-12-31T09:48:51.249Z,206.67
2022-12-31T09:49:51.234Z,203.21
2022-12-31T09:50:51.247Z,203.21
2022-12-31T09:51:51.209Z,203.84
2022-12-31T09:52:51.211Z,201.22
2022-12-31T09:53:51.193Z,199.75
2022-12-31T09:54:51.177Z,198.30
2022-12-31T09:55:51.240Z,197.70
2022-12-31T09:56:57.149Z,197.11
2022-12-31T09:57:52.169Z,196.52
2022-12-31T09:58:51.146Z,195.35
2022-12-31T09:59:51.129Z,193.28
2022-12-31T10:00:51.197Z,190.03
2022-12-31T10:01:51.257Z,188.61
2022-12-31T10:02:51.208Z,190.36
2022-12-31T10:03:51.089Z,189.26
2022-12-31T10:04:51.071Z,190.25
2022-12-31T10:05:51.059Z,189.48
2022-12-31T10:06:51.073Z,189.15
2022-12-31T10:07:53.550Z,188.83
2022-12-31T10:08:51.028Z,189.81
2022-12-31T10:09:51.046Z,190.69
2022-12-31T10:10:51.033Z,192.03
2022-12-31T10:11:51.004Z,191.02
2022-12-31T10:12:50.991Z,190.80
2022-12-31T10:13:51.015Z,193.16
2022-12-31T10:14:50.962Z,193.85
2022-12-31T10:15:50.975Z,195.12
2022-12-31T10:16:50.986Z,195.58
2022-12-31T10:17:50.942Z,196.52
2022-12-31T10:18:50.916Z,197.70
2022-12-31T10:19:50.925Z,198.42
2022-12-31T10:20:50.913Z,198.18
2022-12-31T10:21:50.903Z,197.82
2022-12-31T10:22:50.879Z,197.58
2022-12-31T10:23:50.866Z,197.70
2022-12-31T10:24:50.863Z,196.63
2022-12-31T10:25:51.050Z,197.82
2022-12-31T10:26:53.405Z,197.35
2022-12-31T10:27:50.834Z,197.23
2022-12-31T10:28:50.821Z,197.35
2022-12-31T10:29:50.803Z,197.70
2022-12-31T10:30:50.881Z,197.46
2022-12-31T10:31:50.819Z,196.75
2022-12-31T10:32:50.768Z,194.08
2022-12-31T10:33:50.749Z,190.91
2022-12-31T10:34:50.752Z,189.15
2022-12-31T10:35:50.748Z,189.92
2022-12-31T10:36:50.731Z,191.14
2022-12-31T10:37:50.714Z,190.80
2022-12-31T10:38:50.707Z,192.93
2022-12-31T10:39:50.694Z,193.05
2022-12-31T10:40:50.691Z,194.65
2022-12-31T10:41:50.706Z,195.58
2022-12-31T10:42:50.680Z,194.08
2022-12-31T10:43:50.643Z,196.16
2022-12-31T10:44:50.660Z,196.99
2022-12-31T10:45:50.678Z,197.94
2022-12-31T10:46:50.688Z,198.18
2022-12-31T10:47:50.615Z,199.63
2022-12-31T10:48:50.595Z,199.87
2022-12-31T10:49:50.585Z,200.97
2022-12-31T10:50:50.586Z,199.87
2022-12-31T10:51:50.558Z,201.71
2022-12-31T10:52:50.598Z,202.09
2022-12-31T10:53:50.546Z,200.85
2022-12-31T10:54:50.529Z,202.58
2022-12-31T10:55:50.513Z,203.09
2022-12-31T10:56:50.509Z,203.97
2022-12-31T10:57:50.518Z,204.48
2022-12-31T10:58:50.480Z,203.84
2022-12-31T10:59:50.476Z,205.50
2022-12-31T11:00:50.470Z,205.76
2022-12-31T11:01:50.650Z,205.89
2022-12-31T11:02:50.481Z,206.15
2022-12-31T11:03:50.419Z,207.45
2022-12-31T11:04:50.431Z,206.93
2022-12-31T11:05:50.399Z,207.19
2022-12-31T11:06:50.393Z,206.93
2022-12-31T11:07:50.397Z,206.15
2022-12-31T11:08:50.371Z,207.32
2022-12-31T11:09:50.363Z,207.98
2022-12-31T11:10:50.360Z,207.71
2022-12-31T11:11:50.356Z,207.71
2022-12-31T11:12:50.319Z,208.51
2022-12-31T11:13:50.318Z,210.11
2022-12-31T11:14:50.319Z,210.65
2022-12-31T11:15:50.608Z,209.84
2022-12-31T11:16:50.311Z,210.92
2022-12-31T11:17:50.295Z,210.92
2022-12-31T11:18:50.285Z,209.97
2022-12-31T11:19:50.260Z,210.65
2022-12-31T11:20:50.259Z,209.71
2022-12-31T11:21:50.241Z,209.84
2022-12-31T11:22:50.240Z,209.71
2022-12-31T11:23:50.209Z,209.57
2022-12-31T11:24:50.225Z,210.51
2022-12-31T11:25:50.179Z,209.71
2022-12-31T11:26:50.191Z,208.77
2022-12-31T11:27:50.219Z,210.24
2022-12-31T11:28:50.170Z,209.57
2022-12-31T11:29:50.151Z,210.24
2022-12-31T11:30:50.227Z,210.38
2022-12-31T11:31:50.126Z,210.65
2022-12-31T11:32:50.116Z,208.90
2022-12-31T11:33:50.556Z,209.84
2022-12-31T11:34:50.092Z,210.65
2022-12-31T11:35:50.073Z,211.74
2022-12-31T11:36:50.064Z,210.24
2022-12-31T11:37:50.069Z,211.33
2022-12-31T11:38:50.080Z,210.92
2022-12-31T11:39:50.047Z,211.19
2022-12-31T11:40:50.026Z,210.92
2022-12-31T11:41:50.023Z,213.39
2022-12-31T11:42:50.003Z,212.42
2022-12-31T11:43:49.987Z,214.22
2022-12-31T11:44:50.006Z,214.50
2022-12-31T11:45:50.810Z,215.07
2022-12-31T11:46:50.005Z,215.91
2022-12-31T11:48:28.404Z,215.77
2022-12-31T11:48:50.963Z,216.77
2022-12-31T11:49:49.929Z,216.91
2022-12-31T11:50:49.985Z,216.34
2022-12-31T11:51:50.796Z,216.77
2022-12-31T11:52:49.891Z,215.91
2022-12-31T11:53:49.949Z,216.34
2022-12-31T11:54:49.891Z,217.06
2022-12-31T11:55:49.865Z,217.20
2022-12-31T11:56:49.839Z,217.06
2022-12-31T11:57:49.841Z,217.35
2022-12-31T11:58:49.855Z,217.78
2022-12-31T11:59:49.825Z,217.63
2022-12-31T12:00:49.949Z,216.91
2022-12-31T12:01:49.794Z,217.63
2022-12-31T12:02:53.799Z,216.34
2022-12-31T12:03:52.187Z,216.63
2022-12-31T12:04:49.774Z,216.20
2022-12-31T12:05:49.749Z,215.35
2022-12-31T12:06:49.741Z,216.20
2022-12-31T12:07:49.727Z,214.22
2022-12-31T12:08:49.733Z,215.91
2022-12-31T12:09:49.737Z,212.97
2022-12-31T12:10:49.716Z,212.97
2022-12-31T12:11:49.678Z,213.11
2022-12-31T12:12:49.680Z,212.70
2022-12-31T12:13:49.670Z,212.70
2022-12-31T12:14:49.653Z,213.80
2022-12-31T12:15:49.694Z,212.28
2022-12-31T12:16:49.627Z,212.15
2022-12-31T12:17:49.674Z,210.24
2022-12-31T12:18:49.595Z,211.46
2022-12-31T12:19:49.591Z,209.84
2022-12-31T12:20:49.574Z,209.57
2022-12-31T12:21:49.588Z,209.57
2022-12-31T12:22:49.674Z,210.51
2022-12-31T12:23:49.546Z,210.92
2022-12-31T12:24:49.537Z,209.84
2022-12-31T12:25:49.528Z,208.77
2022-12-31T12:26:49.556Z,209.57
2022-12-31T12:27:49.510Z,209.71
2022-12-31T12:28:49.503Z,208.77